createdAt,value
2024-01-16T00:02:09.157Z,0.77
2024-01-16T00:04:39.277Z,0.60
2024-01-16T00:07:06.722Z,0.78
2024-01-16T00:09:35.326Z,0.83
2024-01-16T00:12:05.784Z,0.84
2024-01-16T00:14:37.680Z,0.73
2024-01-16T00:17:05.127Z,0.85
2024-01-16T00:19:32.425Z,0.59
2024-01-16T00:22:01.352Z,0.67
2024-01-16T00:24:28.511Z,0.56
2024-01-16T00:26:55.874Z,0.47
2024-01-16T00:29:23.400Z,0.40
2024-01-16T00:31:50.621Z,0.57
2024-01-16T00:34:17.766Z,0.50
2024-01-16T00:36:45.010Z,0.41
2024-01-16T00:39:12.397Z,0.27
2024-01-16T00:41:39.594Z,0.32
2024-01-16T00:44:06.721Z,0.38
2024-01-16T00:46:34.039Z,0.30
2024-01-16T00:49:01.294Z,0.27
2024-01-16T00:51:28.643Z,0.49
2024-01-16T00:53:55.797Z,0.48
2024-01-16T00:56:23.368Z,0.24
2024-01-16T00:58:50.533Z,0.29
2024-01-16T01:01:17.784Z,0.36
2024-01-16T01:03:44.935Z,0.22
2024-01-16T01:06:12.988Z,0.24
2024-01-16T01:08:40.274Z,0.15
2024-01-16T01:11:07.545Z,0.17
2024-01-16T01:13:34.693Z,0.23
2024-01-16T01:16:01.845Z,0.20
2024-01-16T01:18:29.301Z,0.36
2024-01-16T01:20:57.075Z,0.29
2024-01-16T01:23:24.444Z,0.29
2024-01-16T01:25:52.931Z,0.19
2024-01-16T01:28:20.251Z,0.21
2024-01-16T01:30:47.421Z,0.17
2024-01-16T01:33:14.709Z,0.13
2024-01-16T01:35:41.997Z,0.21
2024-01-16T01:38:09.580Z,0.10
2024-01-16T01:40:36.699Z,0.16
2024-01-16T01:43:22.813Z,0.19
2024-01-16T01:46:08.441Z,0.16
2024-01-16T01:48:36.141Z,0.06
2024-01-16T01:51:04.030Z,0.10
2024-01-16T01:53:31.978Z,-0.04
2024-01-16T01:56:00.425Z,0.05
2024-01-16T01:58:28.364Z,-0.11
2024-01-16T02:00:55.475Z,-0.12
2024-01-16T02:03:24.535Z,-0.02
2024-01-16T02:05:52.189Z,-0.02
2024-01-16T02:08:19.889Z,-0.04
2024-01-16T02:10:48.828Z,-0.13
2024-01-16T02:13:16.121Z,-0.10
2024-01-16T02:15:43.282Z,-0.06
2024-01-16T02:18:10.610Z,-0.04
2024-01-16T02:20:37.854Z,0.02
2024-01-16T02:23:05.225Z,0.06
2024-01-16T02:25:32.555Z,0.13
2024-01-16T02:28:01.501Z,0.34
2024-01-16T02:30:28.636Z,0.28
2024-01-16T02:32:56.040Z,0.15
2024-01-16T02:35:23.255Z,-0.09
2024-01-16T02:37:50.602Z,-0.17
2024-01-16T02:40:17.843Z,-0.16
2024-01-16T02:42:45.059Z,-0.13
2024-01-16T02:45:12.141Z,-0.09
2024-01-16T02:47:39.454Z,-0.16
2024-01-16T02:50:06.931Z,-0.21
2024-01-16T02:52:34.239Z,-0.18
2024-01-16T02:55:01.429Z,-0.21
2024-01-16T02:57:28.676Z,-0.29
2024-01-16T02:59:55.955Z,-0.29
2024-01-16T03:02:24.722Z,-0.35
2024-01-16T03:04:51.829Z,-0.27
2024-01-16T03:07:19.033Z,-0.21
2024-01-16T03:09:46.209Z,-0.21
2024-01-16T03:12:13.452Z,-0.15
2024-01-16T03:14:40.634Z,-0.10
2024-01-16T03:17:08.391Z,-0.15
2024-01-16T03:19:35.544Z,-0.33
2024-01-16T03:22:02.878Z,-0.38
2024-01-16T03:24:30.073Z,-0.26
2024-01-16T03:26:57.356Z,-0.16
2024-01-16T03:29:24.491Z,-0.23
2024-01-16T03:31:51.737Z,-0.12
2024-01-16T03:34:18.936Z,-0.20
2024-01-16T03:36:46.124Z,-0.38
2024-01-16T03:39:13.426Z,-0.53
2024-01-16T03:41:40.735Z,-0.45
2024-01-16T03:44:07.957Z,-0.50
2024-01-16T03:46:35.276Z,-0.37
2024-01-16T03:49:02.568Z,-0.40
2024-01-16T03:51:29.906Z,-0.57
2024-01-16T03:53:57.052Z,-0.45
2024-01-16T03:56:24.564Z,-0.63
2024-01-16T03:58:51.731Z,-0.60
2024-01-16T04:01:19.171Z,-0.50
2024-01-16T04:03:46.413Z,-0.70
2024-01-16T04:06:19.928Z,-0.57
2024-01-16T04:08:47.389Z,-0.62
2024-01-16T04:11:14.939Z,-0.64
2024-01-16T04:13:42.553Z,-0.57
2024-01-16T04:16:09.612Z,-0.66
2024-01-16T04:18:38.708Z,-0.67
2024-01-16T04:21:06.183Z,-0.54
2024-01-16T04:23:33.732Z,-0.71
2024-01-16T04:26:01.045Z,-0.72
2024-01-16T04:28:28.152Z,-0.76
2024-01-16T04:30:55.507Z,-0.73
2024-01-16T04:33:22.813Z,-0.54
2024-01-16T04:35:50.123Z,-0.63
2024-01-16T04:38:17.348Z,-0.54
2024-01-16T04:40:44.718Z,-0.35
2024-01-16T04:43:11.909Z,-0.30
2024-01-16T04:45:39.266Z,-0.39
2024-01-16T04:48:06.542Z,-0.42
2024-01-16T04:50:33.985Z,-0.35
2024-01-16T04:53:01.694Z,-0.56
2024-01-16T04:55:31.941Z,-0.58
2024-01-16T04:58:01.004Z,-0.80
2024-01-16T05:00:28.452Z,-0.67
2024-01-16T05:02:56.001Z,-0.78
2024-01-16T05:05:25.211Z,-0.59
2024-01-16T05:07:54.867Z,-0.70
2024-01-16T05:10:21.966Z,-0.75
2024-01-16T05:12:49.326Z,-0.77
2024-01-16T05:15:16.818Z,-0.84
2024-01-16T05:17:44.168Z,-0.66
2024-01-16T05:20:11.845Z,-0.55
2024-01-16T05:22:42.182Z,-0.60
2024-01-16T05:25:11.552Z,-0.67
2024-01-16T05:27:38.800Z,-0.67
2024-01-16T05:30:06.234Z,-0.61
2024-01-16T05:32:33.700Z,-0.81
2024-01-16T05:35:00.926Z,-0.93
2024-01-16T05:37:30.574Z,-0.88
2024-01-16T05:39:58.730Z,-0.83
2024-01-16T05:42:27.001Z,-0.90
2024-01-16T05:44:54.988Z,-1.00
2024-01-16T05:47:25.354Z,-0.87
2024-01-16T05:49:52.746Z,-0.95
2024-01-16T05:52:20.011Z,-0.92
2024-01-16T05:54:47.086Z,-0.87
2024-01-16T05:57:14.361Z,-0.91
2024-01-16T05:59:41.469Z,-0.94
2024-01-16T06:02:08.868Z,-0.87
2024-01-16T06:04:53.662Z,-1.05
2024-01-16T06:07:20.999Z,-1.00
2024-01-16T06:09:48.146Z,-0.91
2024-01-16T06:12:15.426Z,-0.88
2024-01-16T06:14:42.632Z,-0.97
2024-01-16T06:17:09.973Z,-0.92
2024-01-16T06:19:37.110Z,-0.90
2024-01-16T06:22:04.498Z,-1.00
2024-01-16T06:24:37.695Z,-0.92
2024-01-16T06:27:08.270Z,-0.88
2024-01-16T06:29:36.072Z,-0.99
2024-01-16T06:32:03.641Z,-1.03
2024-01-16T06:34:31.126Z,-1.10
2024-01-16T06:36:58.457Z,-1.09
2024-01-16T06:39:25.701Z,-1.00
2024-01-16T06:41:52.906Z,-1.08
2024-01-16T06:44:20.582Z,-1.06
2024-01-16T06:46:47.909Z,-1.14
2024-01-16T06:49:15.316Z,-0.98
2024-01-16T06:51:42.640Z,-0.87
2024-01-16T06:54:09.838Z,-0.83
2024-01-16T06:56:37.233Z,-0.84
2024-01-16T06:59:05.549Z,-0.89
2024-01-16T07:01:33.600Z,-0.86
2024-01-16T07:04:00.948Z,-0.83
2024-01-16T07:06:28.869Z,-0.88
2024-01-16T07:08:56.072Z,-1.05
2024-01-16T07:11:25.293Z,-0.89
2024-01-16T07:13:52.810Z,-0.85
2024-01-16T07:16:19.925Z,-0.81
2024-01-16T07:18:48.504Z,-0.75
2024-01-16T07:21:19.719Z,-0.80
2024-01-16T07:23:47.119Z,-0.61
2024-01-16T07:26:14.452Z,-0.63
2024-01-16T07:28:41.869Z,-0.51
2024-01-16T07:31:10.779Z,-0.43
2024-01-16T07:33:38.382Z,-0.42
2024-01-16T07:36:06.500Z,-0.36
2024-01-16T07:41:15.246Z,-0.31
2024-01-16T07:43:42.490Z,-0.33
2024-01-16T07:46:09.611Z,-0.22
2024-01-16T07:48:36.808Z,-0.13
2024-01-16T07:51:04.109Z,0.00
2024-01-16T07:53:31.327Z,0.15
2024-01-16T07:55:59.313Z,0.34
2024-01-16T07:58:26.987Z,0.43
2024-01-16T08:00:54.450Z,0.50
2024-01-16T08:03:21.661Z,0.63
2024-01-16T08:05:49.157Z,0.68
2024-01-16T08:08:16.577Z,0.58
2024-01-16T08:10:44.315Z,0.68
2024-01-16T08:13:11.780Z,0.80
2024-01-16T08:15:38.976Z,0.84
2024-01-16T08:18:06.560Z,1.07
2024-01-16T08:20:33.868Z,1.02
2024-01-16T08:23:01.354Z,0.98
2024-01-16T08:25:28.565Z,1.18
2024-01-16T08:27:55.911Z,1.28
2024-01-16T08:30:23.386Z,1.34
2024-01-16T08:32:50.756Z,1.68
2024-01-16T08:35:18.185Z,1.57
2024-01-16T08:37:45.492Z,1.52
2024-01-16T08:40:12.913Z,1.58
2024-01-16T08:42:40.292Z,1.95
2024-01-16T08:45:07.645Z,1.83
2024-01-16T08:47:35.463Z,1.64
2024-01-16T08:50:03.379Z,2.05
2024-01-16T08:52:30.806Z,1.84
2024-01-16T08:54:58.855Z,1.79
2024-01-16T08:57:27.201Z,2.63
2024-01-16T08:59:56.084Z,2.35
2024-01-16T09:02:23.393Z,2.26
2024-01-16T09:04:51.676Z,2.29
2024-01-16T09:07:19.857Z,2.47
2024-01-16T09:09:47.395Z,2.24
2024-01-16T09:12:14.702Z,3.02
2024-01-16T09:14:42.666Z,2.86
2024-01-16T09:17:09.848Z,3.39
2024-01-16T09:19:37.317Z,3.38
2024-01-16T09:22:04.897Z,3.08
2024-01-16T09:24:32.192Z,2.90
2024-01-16T09:26:59.321Z,3.45
2024-01-16T09:29:26.573Z,3.31
2024-01-16T09:34:09.158Z,3.83
2024-01-16T09:36:38.662Z,3.92
2024-01-16T09:39:12.018Z,4.23
2024-01-16T09:41:47.432Z,4.28
2024-01-16T09:44:15.701Z,4.17
2024-01-16T09:46:47.483Z,4.06
2024-01-16T09:49:17.537Z,3.88
2024-01-16T09:51:46.930Z,4.00
2024-01-16T09:54:14.795Z,4.08
2024-01-16T09:56:44.649Z,4.13
2024-01-16T09:59:16.191Z,4.12
